sensor_id;sensor_type;location;lat;lon;timestamp;temperature;humidity
296;DHT22;132;48.770;9.200;2024-02-28T00:07:36;8.60;1.00
296;DHT22;132;48.770;9.200;2024-02-28T00:20:46;8.90;1.00
296;DHT22;132;48.770;9.200;2024-02-28T00:33:55;8.80;1.00
296;DHT22;132;48.770;9.200;2024-02-28T00:36:43;6.70;1.00
296;DHT22;132;48.770;9.200;2024-02-28T00:49:51;6.90;1.00
296;DHT22;132;48.770;9.200;2024-02-28T01:05:37;8.40;1.00
296;DHT22;132;48.770;9.200;2024-02-28T01:18:48;9.30;1.00
296;DHT22;132;48.770;9.200;2024-02-28T01:22:04;8.40;1.00
296;DHT22;132;48.770;9.200;2024-02-28T01:35:08;8.40;1.00
296;DHT22;132;48.770;9.200;2024-02-28T01:37:51;8.40;1.00
296;DHT22;132;48.770;9.200;2024-02-28T01:40:45;8.30;1.00
296;DHT22;132;48.770;9.200;2024-02-28T01:53:54;8.20;1.00
296;DHT22;132;48.770;9.200;2024-02-28T02:07:03;8.50;1.00
296;DHT22;132;48.770;9.200;2024-02-28T02:20:14;8.20;1.00
296;DHT22;132;48.770;9.200;2024-02-28T02:44:37;7.10;1.00
296;DHT22;132;48.770;9.200;2024-02-28T03:19:50;8.30;1.00
296;DHT22;132;48.770;9.200;2024-02-28T03:33:00;8.80;1.00
296;DHT22;132;48.770;9.200;2024-02-28T03:48:45;7.90;1.00
296;DHT22;132;48.770;9.200;2024-02-28T04:01:54;7.60;1.00
296;DHT22;132;48.770;9.200;2024-02-28T04:20:15;7.70;1.00
296;DHT22;132;48.770;9.200;2024-02-28T04:33:24;9.10;1.00
296;DHT22;132;48.770;9.200;2024-02-28T04:46:34;9.40;1.00
296;DHT22;132;48.770;9.200;2024-02-28T04:59:46;8.30;1.00
296;DHT22;132;48.770;9.200;2024-02-28T05:02:29;7.20;1.00
296;DHT22;132;48.770;9.200;2024-02-28T05:05:24;7.40;1.00
296;DHT22;132;48.770;9.200;2024-02-28T05:08:09;7.40;1.00
296;DHT22;132;48.770;9.200;2024-02-28T05:10:49;7.40;1.00
296;DHT22;132;48.770;9.200;2024-02-28T05:13:40;7.40;1.00
296;DHT22;132;48.770;9.200;2024-02-28T05:26:45;7.30;1.00
296;DHT22;132;48.770;9.200;2024-02-28T05:29:27;7.30;1.00
296;DHT22;132;48.770;9.200;2024-02-28T05:32:10;7.30;1.00
296;DHT22;132;48.770;9.200;2024-02-28T05:35:17;7.30;1.00
296;DHT22;132;48.770;9.200;2024-02-28T05:48:28;7.30;1.00
296;DHT22;132;48.770;9.200;2024-02-28T05:51:24;6.60;1.00
296;DHT22;132;48.770;9.200;2024-02-28T06:04:32;7.20;1.00
296;DHT22;132;48.770;9.200;2024-02-28T06:17:40;7.30;1.00
296;DHT22;132;48.770;9.200;2024-02-28T06:30:49;7.00;1.00
296;DHT22;132;48.770;9.200;2024-02-28T06:43:56;7.10;1.00
296;DHT22;132;48.770;9.200;2024-02-28T06:57:04;7.90;1.00
296;DHT22;132;48.770;9.200;2024-02-28T07:10:12;7.30;1.00
296;DHT22;132;48.770;9.200;2024-02-28T07:23:23;7.30;1.00
296;DHT22;132;48.770;9.200;2024-02-28T07:47:24;8.80;1.00
296;DHT22;132;48.770;9.200;2024-02-28T08:03:07;7.60;1.00
296;DHT22;132;48.770;9.200;2024-02-28T08:05:50;7.80;1.00
296;DHT22;132;48.770;9.200;2024-02-28T08:24:09;7.70;1.00
296;DHT22;132;48.770;9.200;2024-02-28T08:37:17;8.60;1.00
296;DHT22;132;48.770;9.200;2024-02-28T08:50:25;7.70;1.00
296;DHT22;132;48.770;9.200;2024-02-28T08:53:14;7.60;1.00
296;DHT22;132;48.770;9.200;2024-02-28T08:55:52;7.60;1.00
296;DHT22;132;48.770;9.200;2024-02-28T08:58:30;7.60;1.00
296;DHT22;132;48.770;9.200;2024-02-28T09:01:08;7.60;1.00
296;DHT22;132;48.770;9.200;2024-02-28T09:03:46;7.60;1.00
296;DHT22;132;48.770;9.200;2024-02-28T09:06:25;7.70;1.00
296;DHT22;132;48.770;9.200;2024-02-28T09:09:03;7.70;1.00
296;DHT22;132;48.770;9.200;2024-02-28T09:11:44;7.70;1.00
296;DHT22;132;48.770;9.200;2024-02-28T09:14:22;7.80;1.00
296;DHT22;132;48.770;9.200;2024-02-28T09:17:00;7.80;1.00
296;DHT22;132;48.770;9.200;2024-02-28T09:19:42;7.90;1.00
296;DHT22;132;48.770;9.200;2024-02-28T09:22:20;7.90;1.00
296;DHT22;132;48.770;9.200;2024-02-28T09:24:58;8.00;1.00
296;DHT22;132;48.770;9.200;2024-02-28T09:27:48;8.60;1.00
296;DHT22;132;48.770;9.200;2024-02-28T09:30:38;8.10;1.00
296;DHT22;132;48.770;9.200;2024-02-28T09:33:16;8.40;1.00
296;DHT22;132;48.770;9.200;2024-02-28T09:35:56;9.20;1.00
296;DHT22;132;48.770;9.200;2024-02-28T09:38:34;8.20;1.00
296;DHT22;132;48.770;9.200;2024-02-28T09:41:16;8.20;1.00
296;DHT22;132;48.770;9.200;2024-02-28T09:43:57;8.30;1.00
296;DHT22;132;48.770;9.200;2024-02-28T09:46:35;8.70;1.00
296;DHT22;132;48.770;9.200;2024-02-28T09:49:15;8.90;1.00
296;DHT22;132;48.770;9.200;2024-02-28T09:51:53;8.30;1.00
296;DHT22;132;48.770;9.200;2024-02-28T09:54:32;8.50;1.00
296;DHT22;132;48.770;9.200;2024-02-28T09:57:11;8.50;1.00
296;DHT22;132;48.770;9.200;2024-02-28T09:59:50;8.50;1.00
296;DHT22;132;48.770;9.200;2024-02-28T10:02:28;8.50;1.00
296;DHT22;132;48.770;9.200;2024-02-28T10:05:08;8.50;1.00
296;DHT22;132;48.770;9.200;2024-02-28T10:07:46;8.60;1.00
296;DHT22;132;48.770;9.200;2024-02-28T10:10:24;8.60;1.00
296;DHT22;132;48.770;9.200;2024-02-28T10:13:02;8.60;1.00
296;DHT22;132;48.770;9.200;2024-02-28T10:15:42;8.50;1.00
296;DHT22;132;48.770;9.200;2024-02-28T10:18:20;8.50;1.00
296;DHT22;132;48.770;9.200;2024-02-28T10:20:58;9.20;1.00
296;DHT22;132;48.770;9.200;2024-02-28T10:23:37;8.40;1.00
296;DHT22;132;48.770;9.200;2024-02-28T10:26:16;8.40;1.00
296;DHT22;132;48.770;9.200;2024-02-28T10:28:55;8.40;1.00
296;DHT22;132;48.770;9.200;2024-02-28T10:31:33;8.50;1.00
296;DHT22;132;48.770;9.200;2024-02-28T10:34:18;8.40;1.00
296;DHT22;132;48.770;9.200;2024-02-28T10:36:58;8.40;1.00
296;DHT22;132;48.770;9.200;2024-02-28T10:39:38;8.40;1.00
296;DHT22;132;48.770;9.200;2024-02-28T10:42:16;8.80;1.00
296;DHT22;132;48.770;9.200;2024-02-28T10:44:55;8.70;1.00
296;DHT22;132;48.770;9.200;2024-02-28T10:47:35;8.80;1.00
296;DHT22;132;48.770;9.200;2024-02-28T10:50:16;8.40;1.00
296;DHT22;132;48.770;9.200;2024-02-28T10:52:58;9.40;1.00
296;DHT22;132;48.770;9.200;2024-02-28T10:55:42;8.20;1.00
296;DHT22;132;48.770;9.200;2024-02-28T10:58:24;8.30;1.00
296;DHT22;132;48.770;9.200;2024-02-28T11:01:03;8.40;1.00
296;DHT22;132;48.770;9.200;2024-02-28T11:03:42;8.40;1.00
296;DHT22;132;48.770;9.200;2024-02-28T11:06:23;8.60;1.00
296;DHT22;132;48.770;9.200;2024-02-28T11:09:03;8.50;1.00
296;DHT22;132;48.770;9.200;2024-02-28T11:11:41;8.60;1.00
296;DHT22;132;48.770;9.200;2024-02-28T11:14:20;9.20;1.00
296;DHT22;132;48.770;9.200;2024-02-28T11:17:05;8.50;1.00
296;DHT22;132;48.770;9.200;2024-02-28T11:19:45;8.50;1.00
296;DHT22;132;48.770;9.200;2024-02-28T11:22:23;8.50;1.00
296;DHT22;132;48.770;9.200;2024-02-28T11:25:04;8.60;1.00
296;DHT22;132;48.770;9.200;2024-02-28T11:27:47;8.60;1.00
296;DHT22;132;48.770;9.200;2024-02-28T11:30:26;8.60;1.00
296;DHT22;132;48.770;9.200;2024-02-28T11:33:04;8.70;1.00
296;DHT22;132;48.770;9.200;2024-02-28T11:35:42;9.50;1.00
296;DHT22;132;48.770;9.200;2024-02-28T11:38:27;8.60;1.00
296;DHT22;132;48.770;9.200;2024-02-28T11:41:07;8.60;1.00
296;DHT22;132;48.770;9.200;2024-02-28T11:43:47;9.20;1.00
296;DHT22;132;48.770;9.200;2024-02-28T11:46:26;8.60;1.00
296;DHT22;132;48.770;9.200;2024-02-28T11:49:05;8.80;1.00
296;DHT22;132;48.770;9.200;2024-02-28T11:51:44;8.60;1.00
296;DHT22;132;48.770;9.200;2024-02-28T11:54:23;8.60;1.00
296;DHT22;132;48.770;9.200;2024-02-28T11:57:02;8.60;1.00
296;DHT22;132;48.770;9.200;2024-02-28T11:59:41;8.60;1.00
296;DHT22;132;48.770;9.200;2024-02-28T12:02:22;8.60;1.00
296;DHT22;132;48.770;9.200;2024-02-28T12:05:04;8.60;1.00
296;DHT22;132;48.770;9.200;2024-02-28T12:07:43;8.60;1.00
296;DHT22;132;48.770;9.200;2024-02-28T12:10:22;8.60;1.00
296;DHT22;132;48.770;9.200;2024-02-28T12:13:01;8.60;1.00
296;DHT22;132;48.770;9.200;2024-02-28T12:15:41;8.60;1.00
296;DHT22;132;48.770;9.200;2024-02-28T12:18:21;8.60;1.00
296;DHT22;132;48.770;9.200;2024-02-28T12:20:59;8.60;1.00
296;DHT22;132;48.770;9.200;2024-02-28T12:23:37;8.50;1.00
296;DHT22;132;48.770;9.200;2024-02-28T12:26:28;8.50;1.00
296;DHT22;132;48.770;9.200;2024-02-28T12:29:06;8.60;1.00
296;DHT22;132;48.770;9.200;2024-02-28T12:31:43;8.60;1.00
296;DHT22;132;48.770;9.200;2024-02-28T12:34:23;8.60;1.00
296;DHT22;132;48.770;9.200;2024-02-28T12:37:02;9.60;1.00
296;DHT22;132;48.770;9.200;2024-02-28T12:39:43;8.60;1.00
296;DHT22;132;48.770;9.200;2024-02-28T12:42:24;8.60;1.00
296;DHT22;132;48.770;9.200;2024-02-28T12:45:02;8.60;1.00
296;DHT22;132;48.770;9.200;2024-02-28T12:47:42;8.60;1.00
296;DHT22;132;48.770;9.200;2024-02-28T12:50:26;8.60;1.00
296;DHT22;132;48.770;9.200;2024-02-28T12:53:05;8.60;1.00
296;DHT22;132;48.770;9.200;2024-02-28T12:55:43;8.60;1.00
296;DHT22;132;48.770;9.200;2024-02-28T12:58:21;8.60;1.00
296;DHT22;132;48.770;9.200;2024-02-28T13:01:01;8.60;1.00
296;DHT22;132;48.770;9.200;2024-02-28T13:03:39;8.60;1.00
296;DHT22;132;48.770;9.200;2024-02-28T13:06:19;8.50;1.00
296;DHT22;132;48.770;9.200;2024-02-28T13:08:56;8.50;1.00
296;DHT22;132;48.770;9.200;2024-02-28T13:11:37;8.60;1.00
296;DHT22;132;48.770;9.200;2024-02-28T13:14:15;8.60;1.00
296;DHT22;132;48.770;9.200;2024-02-28T13:16:55;8.60;1.00
296;DHT22;132;48.770;9.200;2024-02-28T13:19:33;8.60;1.00
296;DHT22;132;48.770;9.200;2024-02-28T13:22:13;8.60;1.00
296;DHT22;132;48.770;9.200;2024-02-28T13:24:50;9.30;1.00
296;DHT22;132;48.770;9.200;2024-02-28T13:27:28;8.70;1.00
296;DHT22;132;48.770;9.200;2024-02-28T13:30:07;8.90;1.00
296;DHT22;132;48.770;9.200;2024-02-28T13:32:44;8.60;1.00
296;DHT22;132;48.770;9.200;2024-02-28T13:35:24;8.50;1.00
296;DHT22;132;48.770;9.200;2024-02-28T13:38:01;8.50;1.00
296;DHT22;132;48.770;9.200;2024-02-28T13:40:42;8.50;1.00
296;DHT22;132;48.770;9.200;2024-02-28T13:43:38;8.40;1.00
296;DHT22;132;48.770;9.200;2024-02-28T13:46:16;8.30;1.00
296;DHT22;132;48.770;9.200;2024-02-28T13:48:53;8.30;1.00
296;DHT22;132;48.770;9.200;2024-02-28T13:51:34;8.30;1.00
296;DHT22;132;48.770;9.200;2024-02-28T13:54:11;8.20;1.00
296;DHT22;132;48.770;9.200;2024-02-28T13:56:50;8.20;1.00
296;DHT22;132;48.770;9.200;2024-02-28T13:59:28;8.00;1.00
296;DHT22;132;48.770;9.200;2024-02-28T14:02:07;7.80;1.00
296;DHT22;132;48.770;9.200;2024-02-28T14:04:59;7.70;1.00
296;DHT22;132;48.770;9.200;2024-02-28T14:07:37;7.70;1.00
296;DHT22;132;48.770;9.200;2024-02-28T14:10:18;7.80;1.00
296;DHT22;132;48.770;9.200;2024-02-28T14:12:56;7.90;1.00
296;DHT22;132;48.770;9.200;2024-02-28T14:15:35;7.90;1.00
296;DHT22;132;48.770;9.200;2024-02-28T14:18:16;8.10;1.00
296;DHT22;132;48.770;9.200;2024-02-28T14:20:55;8.10;1.00
296;DHT22;132;48.770;9.200;2024-02-28T14:23:36;8.10;1.00
296;DHT22;132;48.770;9.200;2024-02-28T14:26:13;8.50;1.00
296;DHT22;132;48.770;9.200;2024-02-28T14:28:52;8.10;1.00
296;DHT22;132;48.770;9.200;2024-02-28T14:31:30;8.10;1.00
296;DHT22;132;48.770;9.200;2024-02-28T14:34:08;8.20;1.00
296;DHT22;132;48.770;9.200;2024-02-28T14:36:48;8.10;1.00
296;DHT22;132;48.770;9.200;2024-02-28T14:39:28;8.20;1.00
296;DHT22;132;48.770;9.200;2024-02-28T14:42:08;8.20;1.00
296;DHT22;132;48.770;9.200;2024-02-28T14:44:49;8.20;1.00
296;DHT22;132;48.770;9.200;2024-02-28T14:47:27;8.20;1.00
296;DHT22;132;48.770;9.200;2024-02-28T14:50:05;8.20;1.00
296;DHT22;132;48.770;9.200;2024-02-28T14:52:48;8.20;1.00
296;DHT22;132;48.770;9.200;2024-02-28T14:55:28;8.20;1.00
296;DHT22;132;48.770;9.200;2024-02-28T14:58:06;8.50;1.00
296;DHT22;132;48.770;9.200;2024-02-28T15:00:45;9.30;1.00
296;DHT22;132;48.770;9.200;2024-02-28T15:03:24;8.20;1.00
296;DHT22;132;48.770;9.200;2024-02-28T15:06:03;9.10;1.00
296;DHT22;132;48.770;9.200;2024-02-28T15:08:44;8.20;1.00
296;DHT22;132;48.770;9.200;2024-02-28T15:11:22;8.10;1.00
296;DHT22;132;48.770;9.200;2024-02-28T15:14:12;8.10;1.00
296;DHT22;132;48.770;9.200;2024-02-28T15:16:50;8.10;1.00
296;DHT22;132;48.770;9.200;2024-02-28T15:19:29;8.80;1.00
296;DHT22;132;48.770;9.200;2024-02-28T15:22:09;8.00;1.00
296;DHT22;132;48.770;9.200;2024-02-28T15:24:48;8.10;1.00
296;DHT22;132;48.770;9.200;2024-02-28T15:27:26;8.60;1.00
296;DHT22;132;48.770;9.200;2024-02-28T15:30:03;8.00;1.00
296;DHT22;132;48.770;9.200;2024-02-28T15:32:55;8.00;1.00
296;DHT22;132;48.770;9.200;2024-02-28T15:35:36;8.10;1.00
296;DHT22;132;48.770;9.200;2024-02-28T15:38:26;8.10;1.00
296;DHT22;132;48.770;9.200;2024-02-28T15:41:06;8.10;1.00
296;DHT22;132;48.770;9.200;2024-02-28T15:43:44;8.10;1.00
296;DHT22;132;48.770;9.200;2024-02-28T15:46:22;8.10;1.00
296;DHT22;132;48.770;9.200;2024-02-28T15:49:18;8.10;1.00
296;DHT22;132;48.770;9.200;2024-02-28T15:51:58;8.10;1.00
296;DHT22;132;48.770;9.200;2024-02-28T15:54:37;8.10;1.00
296;DHT22;132;48.770;9.200;2024-02-28T15:57:19;8.10;1.00
296;DHT22;132;48.770;9.200;2024-02-28T15:59:59;8.10;1.00
296;DHT22;132;48.770;9.200;2024-02-28T16:02:38;8.00;1.00
296;DHT22;132;48.770;9.200;2024-02-28T16:05:18;8.10;1.00
296;DHT22;132;48.770;9.200;2024-02-28T16:07:58;8.10;1.00
296;DHT22;132;48.770;9.200;2024-02-28T16:10:38;7.90;1.00
296;DHT22;132;48.770;9.200;2024-02-28T16:13:18;8.90;1.00
296;DHT22;132;48.770;9.200;2024-02-28T16:15:57;7.90;1.00
296;DHT22;132;48.770;9.200;2024-02-28T16:18:49;7.80;1.00
296;DHT22;132;48.770;9.200;2024-02-28T16:21:27;7.70;1.00
296;DHT22;132;48.770;9.200;2024-02-28T16:24:07;7.70;1.00
296;DHT22;132;48.770;9.200;2024-02-28T16:26:47;7.70;1.00
296;DHT22;132;48.770;9.200;2024-02-28T16:29:27;7.70;1.00
296;DHT22;132;48.770;9.200;2024-02-28T16:32:08;7.70;1.00
296;DHT22;132;48.770;9.200;2024-02-28T16:34:48;7.50;1.00
296;DHT22;132;48.770;9.200;2024-02-28T16:37:27;7.60;1.00
296;DHT22;132;48.770;9.200;2024-02-28T16:40:06;8.10;1.00
296;DHT22;132;48.770;9.200;2024-02-28T16:42:47;7.60;1.00
296;DHT22;132;48.770;9.200;2024-02-28T16:45:27;7.90;1.00
296;DHT22;132;48.770;9.200;2024-02-28T16:48:07;7.60;1.00
296;DHT22;132;48.770;9.200;2024-02-28T16:51:00;7.60;1.00
296;DHT22;132;48.770;9.200;2024-02-28T16:53:40;7.80;1.00
296;DHT22;132;48.770;9.200;2024-02-28T16:56:20;7.60;1.00
296;DHT22;132;48.770;9.200;2024-02-28T16:58:57;7.60;1.00
296;DHT22;132;48.770;9.200;2024-02-28T17:01:36;7.90;1.00
296;DHT22;132;48.770;9.200;2024-02-28T17:04:17;7.60;1.00
296;DHT22;132;48.770;9.200;2024-02-28T17:06:55;7.60;1.00
296;DHT22;132;48.770;9.200;2024-02-28T17:09:37;7.60;1.00
296;DHT22;132;48.770;9.200;2024-02-28T17:12:42;7.60;1.00
296;DHT22;132;48.770;9.200;2024-02-28T17:15:22;7.60;1.00
296;DHT22;132;48.770;9.200;2024-02-28T17:18:01;7.50;1.00
296;DHT22;132;48.770;9.200;2024-02-28T17:20:40;7.40;1.00
296;DHT22;132;48.770;9.200;2024-02-28T17:23:19;7.40;1.00
296;DHT22;132;48.770;9.200;2024-02-28T17:25:56;7.40;1.00
296;DHT22;132;48.770;9.200;2024-02-28T17:28:39;7.70;1.00
296;DHT22;132;48.770;9.200;2024-02-28T17:31:20;7.50;1.00
296;DHT22;132;48.770;9.200;2024-02-28T17:33:59;7.40;1.00
296;DHT22;132;48.770;9.200;2024-02-28T17:36:40;7.40;1.00
296;DHT22;132;48.770;9.200;2024-02-28T17:39:20;7.40;1.00
296;DHT22;132;48.770;9.200;2024-02-28T17:41:59;7.80;1.00
296;DHT22;132;48.770;9.200;2024-02-28T17:44:38;7.50;1.00
296;DHT22;132;48.770;9.200;2024-02-28T17:47:18;7.50;1.00
296;DHT22;132;48.770;9.200;2024-02-28T17:49:58;8.30;1.00
296;DHT22;132;48.770;9.200;2024-02-28T17:52:38;7.50;1.00
296;DHT22;132;48.770;9.200;2024-02-28T17:55:18;7.50;1.00
296;DHT22;132;48.770;9.200;2024-02-28T17:57:57;7.40;1.00
296;DHT22;132;48.770;9.200;2024-02-28T18:00:35;7.40;1.00
296;DHT22;132;48.770;9.200;2024-02-28T18:03:14;7.40;1.00
296;DHT22;132;48.770;9.200;2024-02-28T18:05:54;7.40;1.00
296;DHT22;132;48.770;9.200;2024-02-28T18:08:36;7.80;1.00
296;DHT22;132;48.770;9.200;2024-02-28T18:11:15;7.60;1.00
296;DHT22;132;48.770;9.200;2024-02-28T18:13:54;7.50;1.00
296;DHT22;132;48.770;9.200;2024-02-28T18:16:33;8.40;1.00
296;DHT22;132;48.770;9.200;2024-02-28T18:19:12;7.50;1.00
296;DHT22;132;48.770;9.200;2024-02-28T18:21:52;8.40;1.00
296;DHT22;132;48.770;9.200;2024-02-28T18:24:32;8.10;1.00
296;DHT22;132;48.770;9.200;2024-02-28T18:27:10;7.50;1.00
296;DHT22;132;48.770;9.200;2024-02-28T18:29:50;8.50;1.00
296;DHT22;132;48.770;9.200;2024-02-28T18:32:32;7.50;1.00
296;DHT22;132;48.770;9.200;2024-02-28T18:35:11;7.40;1.00
296;DHT22;132;48.770;9.200;2024-02-28T18:37:51;8.20;1.00
296;DHT22;132;48.770;9.200;2024-02-28T18:40:30;7.30;1.00
296;DHT22;132;48.770;9.200;2024-02-28T18:43:11;7.40;1.00
296;DHT22;132;48.770;9.200;2024-02-28T18:45:54;7.40;1.00
296;DHT22;132;48.770;9.200;2024-02-28T18:48:35;7.40;1.00
296;DHT22;132;48.770;9.200;2024-02-28T18:51:15;7.40;1.00
296;DHT22;132;48.770;9.200;2024-02-28T18:53:56;7.50;1.00
296;DHT22;132;48.770;9.200;2024-02-28T18:56:35;8.00;1.00
296;DHT22;132;48.770;9.200;2024-02-28T18:59:26;7.60;1.00
296;DHT22;132;48.770;9.200;2024-02-28T19:02:05;7.50;1.00
296;DHT22;132;48.770;9.200;2024-02-28T19:04:46;7.60;1.00
296;DHT22;132;48.770;9.200;2024-02-28T19:07:26;7.50;1.00
296;DHT22;132;48.770;9.200;2024-02-28T19:10:10;7.50;1.00
296;DHT22;132;48.770;9.200;2024-02-28T19:12:57;7.40;1.00
296;DHT22;132;48.770;9.200;2024-02-28T19:15:39;7.40;1.00
296;DHT22;132;48.770;9.200;2024-02-28T19:18:22;7.40;1.00
296;DHT22;132;48.770;9.200;2024-02-28T19:21:00;7.40;1.00
296;DHT22;132;48.770;9.200;2024-02-28T19:23:49;7.50;1.00
296;DHT22;132;48.770;9.200;2024-02-28T19:26:28;7.60;1.00
296;DHT22;132;48.770;9.200;2024-02-28T19:29:13;7.50;1.00
296;DHT22;132;48.770;9.200;2024-02-28T19:31:57;7.50;1.00
296;DHT22;132;48.770;9.200;2024-02-28T19:34:36;7.60;1.00
296;DHT22;132;48.770;9.200;2024-02-28T19:37:16;7.60;1.00
296;DHT22;132;48.770;9.200;2024-02-28T19:39:56;7.60;1.00
296;DHT22;132;48.770;9.200;2024-02-28T19:42:46;7.50;1.00
296;DHT22;132;48.770;9.200;2024-02-28T19:45:26;7.50;1.00
296;DHT22;132;48.770;9.200;2024-02-28T19:48:07;7.50;1.00
296;DHT22;132;48.770;9.200;2024-02-28T19:50:47;7.50;1.00
296;DHT22;132;48.770;9.200;2024-02-28T19:53:28;7.50;1.00
296;DHT22;132;48.770;9.200;2024-02-28T19:56:11;7.50;1.00
296;DHT22;132;48.770;9.200;2024-02-28T19:58:54;7.50;1.00
296;DHT22;132;48.770;9.200;2024-02-28T20:01:32;7.50;1.00
296;DHT22;132;48.770;9.200;2024-02-28T20:04:10;7.40;1.00
296;DHT22;132;48.770;9.200;2024-02-28T20:06:50;7.40;1.00
296;DHT22;132;48.770;9.200;2024-02-28T20:09:32;7.40;1.00
296;DHT22;132;48.770;9.200;2024-02-28T20:12:12;7.40;1.00
296;DHT22;132;48.770;9.200;2024-02-28T20:14:52;7.40;1.00
296;DHT22;132;48.770;9.200;2024-02-28T20:17:34;7.40;1.00
296;DHT22;132;48.770;9.200;2024-02-28T20:20:13;7.40;1.00
296;DHT22;132;48.770;9.200;2024-02-28T20:23:04;7.40;1.00
296;DHT22;132;48.770;9.200;2024-02-28T20:25:44;7.40;1.00
296;DHT22;132;48.770;9.200;2024-02-28T20:28:23;8.20;1.00
296;DHT22;132;48.770;9.200;2024-02-28T20:31:01;7.60;1.00
296;DHT22;132;48.770;9.200;2024-02-28T20:33:42;7.80;1.00
296;DHT22;132;48.770;9.200;2024-02-28T20:36:20;7.40;1.00
296;DHT22;132;48.770;9.200;2024-02-28T20:38:59;7.40;1.00
296;DHT22;132;48.770;9.200;2024-02-28T20:41:38;7.30;1.00
296;DHT22;132;48.770;9.200;2024-02-28T20:44:20;7.30;1.00
296;DHT22;132;48.770;9.200;2024-02-28T20:47:11;7.40;1.00
296;DHT22;132;48.770;9.200;2024-02-28T20:49:51;7.30;1.00
296;DHT22;132;48.770;9.200;2024-02-28T20:52:31;7.30;1.00
296;DHT22;132;48.770;9.200;2024-02-28T20:55:09;7.30;1.00
296;DHT22;132;48.770;9.200;2024-02-28T20:57:48;7.20;1.00
296;DHT22;132;48.770;9.200;2024-02-28T21:00:25;7.20;1.00
296;DHT22;132;48.770;9.200;2024-02-28T21:03:08;7.10;1.00
296;DHT22;132;48.770;9.200;2024-02-28T21:05:46;7.10;1.00
296;DHT22;132;48.770;9.200;2024-02-28T21:08:28;7.00;1.00
296;DHT22;132;48.770;9.200;2024-02-28T21:11:09;7.10;1.00
296;DHT22;132;48.770;9.200;2024-02-28T21:13:48;7.10;1.00
296;DHT22;132;48.770;9.200;2024-02-28T21:16:33;7.00;1.00
296;DHT22;132;48.770;9.200;2024-02-28T21:19:13;7.00;1.00
296;DHT22;132;48.770;9.200;2024-02-28T21:22:04;7.00;1.00
296;DHT22;132;48.770;9.200;2024-02-28T21:24:42;6.90;1.00
296;DHT22;132;48.770;9.200;2024-02-28T21:27:20;6.80;1.00
296;DHT22;132;48.770;9.200;2024-02-28T21:30:06;6.80;1.00
296;DHT22;132;48.770;9.200;2024-02-28T21:32:45;6.80;1.00
296;DHT22;132;48.770;9.200;2024-02-28T21:35:23;6.70;1.00
296;DHT22;132;48.770;9.200;2024-02-28T21:38:05;6.60;1.00
296;DHT22;132;48.770;9.200;2024-02-28T21:41:11;7.40;1.00
296;DHT22;132;48.770;9.200;2024-02-28T21:43:52;6.50;1.00
296;DHT22;132;48.770;9.200;2024-02-28T21:46:33;6.40;1.00
296;DHT22;132;48.770;9.200;2024-02-28T21:49:12;6.40;1.00
296;DHT22;132;48.770;9.200;2024-02-28T21:51:51;6.40;1.00
296;DHT22;132;48.770;9.200;2024-02-28T21:54:31;6.20;1.00
296;DHT22;132;48.770;9.200;2024-02-28T21:57:12;6.10;1.00
296;DHT22;132;48.770;9.200;2024-02-28T22:00:02;6.10;1.00
296;DHT22;132;48.770;9.200;2024-02-28T22:02:47;6.00;1.00
296;DHT22;132;48.770;9.200;2024-02-28T22:05:28;5.90;1.00
296;DHT22;132;48.770;9.200;2024-02-28T22:08:48;5.90;1.00
296;DHT22;132;48.770;9.200;2024-02-28T22:11:26;6.00;1.00
296;DHT22;132;48.770;9.200;2024-02-28T22:14:08;5.70;1.00
296;DHT22;132;48.770;9.200;2024-02-28T22:16:53;5.60;1.00
296;DHT22;132;48.770;9.200;2024-02-28T22:19:33;5.60;1.00
296;DHT22;132;48.770;9.200;2024-02-28T22:22:13;5.60;1.00
296;DHT22;132;48.770;9.200;2024-02-28T22:24:54;5.60;1.00
296;DHT22;132;48.770;9.200;2024-02-28T22:27:34;5.50;1.00
296;DHT22;132;48.770;9.200;2024-02-28T22:30:12;5.50;1.00
296;DHT22;132;48.770;9.200;2024-02-28T22:32:52;5.40;1.00
296;DHT22;132;48.770;9.200;2024-02-28T22:35:33;5.40;1.00
296;DHT22;132;48.770;9.200;2024-02-28T22:38:13;5.40;1.00
296;DHT22;132;48.770;9.200;2024-02-28T22:40:51;5.40;1.00
296;DHT22;132;48.770;9.200;2024-02-28T22:43:29;5.30;1.00
296;DHT22;132;48.770;9.200;2024-02-28T22:46:11;5.30;1.00
296;DHT22;132;48.770;9.200;2024-02-28T22:48:52;5.30;1.00
296;DHT22;132;48.770;9.200;2024-02-28T22:51:33;5.30;1.00
296;DHT22;132;48.770;9.200;2024-02-28T22:54:16;5.30;1.00
296;DHT22;132;48.770;9.200;2024-02-28T22:56:56;5.30;1.00
296;DHT22;132;48.770;9.200;2024-02-28T22:59:39;5.20;1.00
296;DHT22;132;48.770;9.200;2024-02-28T23:02:20;5.10;1.00
296;DHT22;132;48.770;9.200;2024-02-28T23:05:01;5.00;1.00
296;DHT22;132;48.770;9.200;2024-02-28T23:07:41;4.40;1.00
296;DHT22;132;48.770;9.200;2024-02-28T23:10:21;4.90;1.00
296;DHT22;132;48.770;9.200;2024-02-28T23:13:00;4.90;1.00
296;DHT22;132;48.770;9.200;2024-02-28T23:15:44;4.90;1.00
296;DHT22;132;48.770;9.200;2024-02-28T23:18:23;5.80;1.00
296;DHT22;132;48.770;9.200;2024-02-28T23:21:04;5.60;1.00
296;DHT22;132;48.770;9.200;2024-02-28T23:23:48;4.80;1.00
296;DHT22;132;48.770;9.200;2024-02-28T23:26:28;4.80;1.00
296;DHT22;132;48.770;9.200;2024-02-28T23:29:07;4.80;1.00
296;DHT22;132;48.770;9.200;2024-02-28T23:31:49;5.60;1.00
296;DHT22;132;48.770;9.200;2024-02-28T23:34:28;4.70;1.00
296;DHT22;132;48.770;9.200;2024-02-28T23:37:08;4.70;1.00
296;DHT22;132;48.770;9.200;2024-02-28T23:39:46;4.70;1.00
296;DHT22;132;48.770;9.200;2024-02-28T23:42:30;4.70;1.00
296;DHT22;132;48.770;9.200;2024-02-28T23:45:13;4.70;1.00
296;DHT22;132;48.770;9.200;2024-02-28T23:47:54;4.70;1.00
296;DHT22;132;48.770;9.200;2024-02-28T23:50:35;4.70;1.00
296;DHT22;132;48.770;9.200;2024-02-28T23:53:13;4.60;1.00
296;DHT22;132;48.770;9.200;2024-02-28T23:56:00;4.60;1.00
296;DHT22;132;48.770;9.200;2024-02-28T23:58:42;4.60;1.00
